Time;durP1;ratioP1;P1;durP2;ratioP2;P2;SDS_P1;SDS_P2;PMS_P1;PMS_P2;Temp;Humidity;BMP_temperature;BMP_pressure;BME280_temperature;BME280_humidity;BME280_pressure;Samples;Min_cycle;Max_cycle;Signal;HPM_P1;HPM_P2
2022/05/16 00:02:09;;;;;;;2.75;1.48;;;;;;;14.25;71.77;98687.13;5031394;28;20504;-66
2022/05/16 00:04:39;;;;;;;4.43;1.80;;;;;;;14.24;71.53;98671.00;5031431;28;20048;-67
2022/05/16 00:07:05;;;;;;;7.20;1.75;;;;;;;14.34;72.08;98682.16;5024728;28;20025;-66
2022/05/16 00:09:30;;;;;;;4.13;1.77;;;;;;;14.29;71.92;98684.75;5031185;28;20156;-67
2022/05/16 00:11:56;;;;;;;4.40;1.63;;;;;;;14.28;71.92;98682.25;5032586;28;20120;-66
2022/05/16 00:14:21;;;;;;;3.45;1.73;;;;;;;14.19;72.12;98685.28;5031731;28;20021;-66
2022/05/16 00:16:46;;;;;;;4.43;1.55;;;;;;;14.14;72.92;98684.31;5032735;28;20022;-66
2022/05/16 00:19:11;;;;;;;1.98;1.63;;;;;;;14.22;72.35;98673.13;5030461;28;20079;-66
2022/05/16 00:21:37;;;;;;;4.80;1.48;;;;;;;14.08;72.72;98650.72;5031434;28;20463;-67
2022/05/16 00:24:03;;;;;;;4.38;1.95;;;;;;;14.15;73.25;98675.94;5031774;28;20029;-66
2022/05/16 00:26:28;;;;;;;3.03;1.70;;;;;;;14.27;73.43;98669.72;5032638;28;20505;-66
2022/05/16 00:28:53;;;;;;;6.10;1.80;;;;;;;14.22;75.07;98663.06;5025850;28;20014;-66
2022/05/16 00:31:19;;;;;;;5.70;1.98;;;;;;;14.02;75.61;98657.06;5024870;28;20044;-66
2022/05/16 00:33:44;;;;;;;5.38;2.03;;;;;;;13.97;76.65;98660.47;5030665;28;20041;-66
2022/05/16 00:36:09;;;;;;;6.32;2.13;;;;;;;14.03;76.01;98651.38;5029187;28;20490;-66
2022/05/16 00:38:35;;;;;;;3.20;2.10;;;;;;;13.89;74.97;98632.78;5028900;28;20144;-65
2022/05/16 00:41:01;;;;;;;6.88;2.10;;;;;;;14.00;74.77;98648.31;5029825;28;20041;-66
2022/05/16 00:43:53;;;;;;;4.22;2.03;;;;;;;13.64;76.93;98649.16;5029945;28;20531;-66
2022/05/16 00:46:20;;;;;;;3.97;2.00;;;;;;;13.64;77.63;98639.13;5031209;28;20448;-66
2022/05/16 00:48:46;;;;;;;5.45;2.00;;;;;;;13.56;77.24;98618.50;5030448;28;20096;-66
2022/05/16 00:51:19;;;;;;;2.47;1.77;;;;;;;13.62;77.01;98637.69;5037499;28;20463;-67
2022/05/16 00:53:47;;;;;;;2.53;1.50;;;;;;;13.54;77.90;98630.66;5030257;28;20025;-66
2022/05/16 00:56:14;;;;;;;5.50;1.83;;;;;;;13.59;78.01;98637.06;5030114;28;20112;-67
2022/05/16 00:58:41;;;;;;;2.42;1.73;;;;;;;13.62;77.82;98640.41;5026825;28;20029;-66
2022/05/16 01:04:47;;;;;;;4.68;1.65;;;;;;;13.47;77.51;98633.47;5031391;28;20479;-66
2022/05/16 01:06:40;;;;;;;2.78;1.67;;;;;;;13.27;78.46;98617.38;5031280;28;20399;-66
2022/05/16 01:09:07;;;;;;;1.90;1.50;;;;;;;13.21;78.53;98623.69;5030169;28;20025;-67
2022/05/16 01:11:35;;;;;;;2.45;1.60;;;;;;;13.23;78.46;98621.59;5027825;28;20046;-66
2022/05/16 01:14:01;;;;;;;3.78;1.80;;;;;;;13.19;78.08;98606.78;5030909;28;20029;-66
2022/05/16 01:16:27;;;;;;;4.15;1.73;;;;;;;13.44;76.22;98611.34;5029680;28;20062;-67
2022/05/16 01:18:52;;;;;;;2.42;1.38;;;;;;;13.49;76.05;98620.50;5030909;28;20034;-67
2022/05/16 01:21:35;;;;;;;4.63;1.77;;;;;;;13.62;74.67;98615.94;5030829;28;20065;-66
2022/05/16 01:24:07;;;;;;;3.00;1.27;;;;;;;13.73;73.86;98607.03;5029946;28;20014;-66
2022/05/16 01:26:33;;;;;;;2.03;1.40;;;;;;;13.74;73.72;98605.97;5032399;28;20498;-66
2022/05/16 01:28:58;;;;;;;3.83;1.65;;;;;;;13.80;72.15;98600.44;5027747;28;20021;-66
2022/05/16 01:31:24;;;;;;;4.38;1.58;;;;;;;13.87;69.46;98600.34;5022110;28;20695;-66
2022/05/16 01:33:50;;;;;;;3.97;1.48;;;;;;;13.96;69.05;98593.53;5023908;28;20029;-66
2022/05/16 01:36:15;;;;;;;5.97;1.52;;;;;;;13.99;69.34;98601.25;5030746;28;20021;-66
2022/05/16 01:38:41;;;;;;;2.22;1.05;;;;;;;13.96;68.86;98576.38;5030903;28;20045;-66
2022/05/16 01:41:11;;;;;;;3.75;1.48;;;;;;;13.92;69.65;98588.78;5075650;22;20105;-72
2022/05/16 01:43:44;;;;;;;4.68;1.30;;;;;;;13.95;70.45;98596.50;5065989;28;20021;-70
2022/05/16 01:46:12;;;;;;;2.33;1.40;;;;;;;13.80;71.12;98596.88;5059559;28;20025;-70
2022/05/16 01:48:37;;;;;;;3.17;1.40;;;;;;;13.88;70.15;98610.16;5060388;28;20497;-70
2022/05/16 01:51:06;;;;;;;7.03;1.65;;;;;;;13.96;69.47;98607.16;5040274;28;20064;-70
2022/05/16 01:53:32;;;;;;;2.25;1.23;;;;;;;14.01;69.06;98611.88;5029275;28;20112;-71
2022/05/16 01:55:57;;;;;;;6.13;1.80;;;;;;;14.03;69.07;98605.16;5031194;28;20152;-70
2022/05/16 01:58:24;;;;;;;3.05;1.33;;;;;;;14.06;68.95;98614.72;5035286;28;20083;-70
2022/05/16 02:00:50;;;;;;;3.45;1.48;;;;;;;13.96;68.54;98593.53;5032097;28;20097;-71
2022/05/16 02:03:16;;;;;;;2.50;1.50;;;;;;;14.12;67.53;98602.94;5035176;28;20413;-70
2022/05/16 02:05:43;;;;;;;2.85;1.50;;;;;;;14.25;65.05;98610.91;5036139;28;20028;-70
2022/05/16 02:08:09;;;;;;;3.28;1.40;;;;;;;14.41;64.02;98603.16;5036035;28;20034;-70
2022/05/16 02:10:35;;;;;;;6.00;1.27;;;;;;;14.45;64.04;98568.94;5033000;28;20032;-70
2022/05/16 02:13:03;;;;;;;6.13;1.42;;;;;;;14.66;64.45;98614.69;5033927;28;20029;-70
2022/05/16 02:15:30;;;;;;;1.90;1.52;;;;;;;14.52;66.55;98615.13;5033875;28;20091;-70
2022/05/16 02:17:56;;;;;;;5.43;1.75;;;;;;;14.32;67.53;98599.09;5040899;28;20034;-71
2022/05/16 02:20:22;;;;;;;3.78;1.33;;;;;;;14.46;67.10;98606.84;5034283;28;20037;-71
2022/05/16 02:25:33;;;;;;;4.40;1.60;;;;;;;14.25;70.24;98601.91;5033930;28;20032;-71
2022/05/16 02:27:59;;;;;;;4.85;1.58;;;;;;;14.24;70.34;98605.69;5035139;28;20037;-70
2022/05/16 02:30:24;;;;;;;2.15;1.38;;;;;;;14.19;70.73;98608.28;5033244;28;20544;-71
2022/05/16 02:32:50;;;;;;;4.53;1.50;;;;;;;14.10;70.40;98615.13;5034477;28;20065;-70
2022/05/16 02:35:16;;;;;;;2.25;1.55;;;;;;;13.99;68.89;98598.53;5034808;28;20084;-70
2022/05/16 02:37:41;;;;;;;2.00;1.50;;;;;;;14.09;69.30;98619.72;5033589;28;20483;-70
2022/05/16 02:40:08;;;;;;;3.42;1.85;;;;;;;13.98;70.18;98615.06;5015821;28;20508;-70
2022/05/16 02:42:34;;;;;;;3.20;1.70;;;;;;;14.00;70.83;98627.38;5034578;28;20041;-71
2022/05/16 02:44:59;;;;;;;6.70;1.83;;;;;;;13.87;71.06;98621.28;5035754;28;20051;-72
2022/05/16 02:47:25;;;;;;;2.95;1.80;;;;;;;13.77;72.39;98627.25;5036962;28;20056;-71
2022/05/16 02:49:51;;;;;;;5.28;1.70;;;;;;;13.72;71.00;98625.22;5034970;28;20481;-71
2022/05/16 02:52:17;;;;;;;2.80;1.70;;;;;;;13.72;71.03;98614.34;5032387;28;20236;-71
2022/05/16 02:54:42;;;;;;;3.72;1.73;;;;;;;13.75;71.26;98624.78;5019244;28;20028;-71
2022/05/16 02:57:09;;;;;;;3.65;1.77;;;;;;;13.94;71.16;98611.16;5037535;28;20033;-70
2022/05/16 02:59:35;;;;;;;3.58;1.63;;;;;;;13.93;69.56;98593.16;5034386;28;20029;-70
2022/05/16 03:02:03;;;;;;;4.13;1.70;;;;;;;13.83;70.31;98596.41;5033299;28;20490;-71
2022/05/16 03:04:29;;;;;;;3.22;1.80;;;;;;;13.91;71.27;98623.31;5037348;28;20037;-70
2022/05/16 03:06:55;;;;;;;2.72;1.67;;;;;;;13.84;71.41;98624.47;5020813;28;20037;-71
2022/05/16 03:09:22;;;;;;;4.00;1.83;;;;;;;13.73;73.25;98626.91;5034372;28;20109;-71
2022/05/16 03:11:47;;;;;;;3.83;1.75;;;;;;;13.59;75.48;98633.53;5034383;28;20037;-70
2022/05/16 03:14:13;;;;;;;2.75;1.40;;;;;;;13.34;74.49;98623.56;5029136;28;20622;-71
2022/05/16 03:16:38;;;;;;;3.33;1.85;;;;;;;13.32;72.05;98625.69;5032771;28;20025;-71
2022/05/16 03:19:05;;;;;;;2.05;1.42;;;;;;;13.43;72.62;98631.44;5041805;28;20607;-71
2022/05/16 03:21:30;;;;;;;1.92;1.35;;;;;;;13.38;72.65;98630.19;5036294;28;20021;-71
2022/05/16 03:23:57;;;;;;;2.45;1.60;;;;;;;13.50;71.96;98646.59;5032341;28;20060;-71
2022/05/16 03:26:22;;;;;;;4.00;1.70;;;;;;;13.52;73.11;98657.25;5031957;28;20029;-71
2022/05/16 03:28:48;;;;;;;2.92;1.50;;;;;;;13.41;73.44;98634.34;5032602;28;20037;-71
2022/05/16 03:31:13;;;;;;;3.38;1.92;;;;;;;13.56;73.80;98653.03;5033072;28;20399;-70
2022/05/16 03:33:38;;;;;;;3.38;1.50;;;;;;;13.55;73.89;98656.81;5041676;28;20021;-70
2022/05/16 03:36:04;;;;;;;5.85;3.95;;;;;;;13.51;73.76;98650.97;5034128;28;20029;-71
2022/05/16 03:41:14;;;;;;;6.85;1.92;;;;;;;13.65;73.24;98664.41;5026254;28;20076;-71
2022/05/16 03:43:40;;;;;;;3.08;1.90;;;;;;;13.66;73.24;98664.19;5030082;28;20061;-71
2022/05/16 03:46:07;;;;;;;2.78;1.70;;;;;;;13.69;73.66;98652.84;5033250;28;20087;-70
2022/05/16 03:48:33;;;;;;;3.78;2.13;;;;;;;13.74;75.01;98646.75;5034251;28;20061;-71
2022/05/16 03:51:01;;;;;;;3.50;2.03;;;;;;;13.77;75.61;98658.00;5029448;28;20430;-70
2022/05/16 03:53:26;;;;;;;5.63;2.35;;;;;;;13.73;73.73;98661.41;5023239;28;20188;-77
2022/05/16 03:55:52;;;;;;;6.22;2.20;;;;;;;13.76;73.37;98653.63;5029648;28;20501;-74
2022/05/16 03:58:17;;;;;;;6.30;2.60;;;;;;;13.81;72.95;98645.63;5030442;28;20079;-73
2022/05/16 04:00:43;;;;;;;5.90;1.92;;;;;;;13.99;72.40;98668.38;5010541;28;20449;-75
2022/05/16 04:03:08;;;;;;;4.68;2.20;;;;;;;13.95;72.75;98645.44;5031807;28;20029;-74
2022/05/16 04:05:35;;;;;;;3.70;2.25;;;;;;;13.95;72.73;98626.41;5030371;28;20040;-72
2022/05/16 04:08:01;;;;;;;5.35;2.10;;;;;;;14.17;72.01;98668.38;5035631;28;20039;-74
2022/05/16 04:10:26;;;;;;;5.28;2.15;;;;;;;14.46;70.99;98674.03;5043233;28;20029;-74
2022/05/16 04:12:52;;;;;;;5.22;2.00;;;;;;;14.43;70.58;98674.50;5033386;28;20032;-73
2022/05/16 04:15:17;;;;;;;3.40;2.13;;;;;;;14.59;70.01;98660.28;5016637;28;20108;-73
2022/05/16 04:17:43;;;;;;;6.07;2.13;;;;;;;14.60;70.08;98661.94;5033701;28;20028;-75
2022/05/16 04:20:10;;;;;;;3.53;1.88;;;;;;;14.58;69.81;98677.66;5015248;28;20036;-74
2022/05/16 04:22:35;;;;;;;5.63;2.20;;;;;;;14.80;68.79;98658.91;5030378;28;20049;-70
2022/05/16 04:25:01;;;;;;;3.17;2.03;;;;;;;14.69;68.83;98638.72;5031581;28;20056;-74
2022/05/16 04:27:26;;;;;;;3.10;2.45;;;;;;;14.69;69.49;98660.50;5032741;28;20013;-76
2022/05/16 04:29:52;;;;;;;3.25;1.80;;;;;;;14.84;69.78;98679.16;5028354;28;20470;-76
2022/05/16 04:32:17;;;;;;;7.65;1.90;;;;;;;14.91;69.19;98659.97;5034180;28;20021;-71
2022/05/16 04:34:42;;;;;;;6.05;2.30;;;;;;;15.01;69.12;98653.94;5030138;28;20033;-75
2022/05/16 04:37:08;;;;;;;7.68;2.00;;;;;;;14.97;69.57;98656.31;5029024;28;20029;-74
2022/05/16 04:39:33;;;;;;;3.17;1.70;;;;;;;15.19;71.40;98689.25;5031535;28;20032;-71
2022/05/16 04:44:42;;;;;;;3.58;2.03;;;;;;;14.72;74.05;98670.09;5036736;28;20028;-80
2022/05/16 04:47:09;;;;;;;6.35;1.85;;;;;;;14.83;74.57;98684.84;5041594;28;20021;-79
2022/05/16 04:49:35;;;;;;;6.20;2.03;;;;;;;14.76;74.56;98679.47;5055041;28;20406;-77
2022/05/16 04:52:00;;;;;;;4.05;2.08;;;;;;;14.79;74.45;98686.34;5026370;28;20128;-76
2022/05/16 04:54:27;;;;;;;2.88;1.70;;;;;;;14.90;74.22;98702.72;5015889;28;20487;-77
2022/05/16 04:56:52;;;;;;;3.05;1.83;;;;;;;15.15;71.49;98700.88;5027073;28;20025;-76
2022/05/16 04:59:19;;;;;;;5.18;1.90;;;;;;;15.05;71.88;98677.75;5021231;28;20013;-74
2022/05/16 05:01:45;;;;;;;4.25;1.83;;;;;;;15.34;71.50;98708.69;5033184;28;20057;-74
2022/05/16 05:04:10;;;;;;;4.57;2.15;;;;;;;15.35;71.88;98693.16;5030465;28;20547;-73
2022/05/16 05:06:36;;;;;;;4.95;2.15;;;;;;;15.49;71.53;98680.97;5031691;28;20099;-75
2022/05/16 05:09:02;;;;;;;4.20;2.42;;;;;;;15.70;72.53;98695.09;5030487;28;20022;-75
2022/05/16 05:16:56;;;;;;;5.10;2.55;;;;;;;16.04;73.33;98690.63;5017586;28;20032;-71
2022/05/16 05:19:21;;;;;;;5.07;2.38;;;;;;;16.30;73.15;98697.44;5031728;28;20017;-72
2022/05/16 05:21:47;;;;;;;7.30;2.50;;;;;;;16.37;71.70;98706.31;5014315;28;20025;-72
2022/05/16 05:24:13;;;;;;;6.25;2.38;;;;;;;16.43;73.34;98704.50;5029644;28;20053;-71
2022/05/16 05:26:39;;;;;;;6.00;2.17;;;;;;;16.41;76.60;98704.72;5029990;28;20021;-71
2022/05/16 05:29:05;;;;;;;3.38;1.95;;;;;;;16.41;76.75;98702.00;5030366;28;20037;-71
2022/05/16 05:31:31;;;;;;;5.03;2.08;;;;;;;16.48;75.91;98709.22;5031783;28;20032;-70
2022/05/16 05:33:57;;;;;;;6.38;2.30;;;;;;;16.62;76.17;98699.66;5035892;28;20025;-66
2022/05/16 05:36:23;;;;;;;4.43;1.92;;;;;;;16.48;77.50;98680.03;5036618;28;20076;-72
2022/05/16 05:38:51;;;;;;;4.65;2.28;;;;;;;16.68;73.52;98704.13;5034339;28;20029;-71
2022/05/16 05:41:17;;;;;;;3.80;2.17;;;;;;;16.62;73.39;98707.84;5035483;28;20091;-71
2022/05/16 05:43:42;;;;;;;5.80;2.30;;;;;;;16.57;73.28;98705.03;5026326;28;20045;-75
2022/05/16 05:46:08;;;;;;;4.68;2.50;;;;;;;16.47;72.47;98700.19;5034826;28;20117;-75
2022/05/16 05:48:33;;;;;;;3.03;2.20;;;;;;;16.67;72.26;98702.50;5035475;28;20445;-75
2022/05/16 05:50:58;;;;;;;5.20;2.60;;;;;;;16.53;71.59;98699.25;5035583;28;20082;-76
2022/05/16 05:53:24;;;;;;;5.25;2.20;;;;;;;16.64;71.71;98705.72;5039839;28;20033;-77
2022/05/16 05:55:50;;;;;;;3.80;2.15;;;;;;;16.72;71.47;98710.78;5020689;28;20116;-77
2022/05/16 05:58:16;;;;;;;5.53;2.63;;;;;;;16.96;71.14;98710.69;5035521;28;20025;-77
2022/05/16 06:00:42;;;;;;;5.45;2.67;;;;;;;17.02;72.29;98706.94;5035707;28;20062;-76
2022/05/16 06:03:08;;;;;;;6.43;2.30;;;;;;;17.06;73.12;98719.06;5017976;28;20378;-68
2022/05/16 06:05:33;;;;;;;2.50;1.95;;;;;;;17.14;72.28;98704.16;5034371;28;20029;-73
2022/05/16 06:07:59;;;;;;;5.13;2.22;;;;;;;16.98;68.97;98687.50;5034580;28;20032;-74
2022/05/16 06:10:24;;;;;;;3.83;1.92;;;;;;;17.15;66.41;98709.34;5034738;28;20033;-73
2022/05/16 06:12:50;;;;;;;3.33;1.70;;;;;;;17.57;64.40;98729.97;5035288;28;20082;-75
2022/05/16 06:15:16;;;;;;;4.97;1.92;;;;;;;17.69;63.14;98727.97;5017455;28;20396;-75
2022/05/16 06:17:43;;;;;;;4.15;1.83;;;;;;;17.81;62.31;98695.84;5033795;28;20036;-74
2022/05/16 06:20:10;;;;;;;3.15;1.70;;;;;;;18.60;59.74;98725.59;5034839;28;20013;-75
2022/05/16 06:22:37;;;;;;;5.07;1.92;;;;;;;18.71;58.77;98723.78;5031605;28;20025;-74
2022/05/16 06:27:49;;;;;;;3.05;1.75;;;;;;;19.76;56.50;98728.81;5018275;28;20548;-74
2022/05/16 06:30:16;;;;;;;3.63;1.83;;;;;;;20.22;55.40;98725.47;5029795;28;20116;-75
2022/05/16 06:32:41;;;;;;;3.58;1.92;;;;;;;20.74;53.83;98711.66;5035788;28;20391;-76
2022/05/16 06:35:07;;;;;;;4.93;1.80;;;;;;;21.06;52.11;98718.84;5026204;28;20017;-75
2022/05/16 06:37:32;;;;;;;5.22;2.00;;;;;;;21.70;51.18;98722.16;5017711;28;20482;-76
2022/05/16 06:39:57;;;;;;;4.60;2.38;;;;;;;22.78;47.98;98726.16;5035345;28;20116;-76
2022/05/16 06:42:23;;;;;;;7.65;2.28;;;;;;;23.25;45.93;98694.38;5032927;28;20095;-74
2022/05/16 06:44:48;;;;;;;5.65;2.03;;;;;;;25.83;41.37;98721.13;5035311;28;20021;-76
2022/05/16 06:47:14;;;;;;;4.82;2.03;;;;;;;25.53;42.00;98731.63;5034948;28;20061;-76
2022/05/16 06:49:39;;;;;;;4.35;1.90;;;;;;;26.41;40.77;98718.59;5034777;28;20017;-76
2022/05/16 06:52:05;;;;;;;4.45;1.92;;;;;;;27.50;38.24;98743.59;5034927;28;20061;-75
2022/05/16 06:54:30;;;;;;;2.47;1.73;;;;;;;27.70;38.00;98753.41;5013965;28;20068;-75
2022/05/16 06:56:55;;;;;;;4.88;1.80;;;;;;;27.51;38.34;98750.00;5016971;28;20487;-75
2022/05/16 06:59:21;;;;;;;8.30;1.80;;;;;;;28.10;37.48;98747.91;5033824;28;20025;-75
2022/05/16 07:01:46;;;;;;;7.85;1.70;;;;;;;29.73;34.72;98729.28;5035100;28;20087;-75
2022/05/16 07:04:12;;;;;;;10.95;1.83;;;;;;;31.04;32.25;98758.22;5029093;28;20017;-73
2022/05/16 07:06:37;;;;;;;6.13;1.73;;;;;;;31.70;30.47;98763.09;5015397;28;20021;-73
2022/05/16 07:09:03;;;;;;;3.05;1.40;;;;;;;31.15;31.70;98770.66;5033710;28;20630;-76
2022/05/16 07:11:30;;;;;;;5.47;1.33;;;;;;;29.62;32.33;98765.03;5029833;28;20108;-73
2022/05/16 07:13:55;;;;;;;2.00;1.50;;;;;;;26.54;37.41;98778.03;5034867;28;20025;-76
2022/05/16 07:16:20;;;;;;;3.92;2.08;;;;;;;25.40;40.01;98760.94;5034310;28;20479;-72
2022/05/16 07:18:46;;;;;;;7.55;2.20;;;;;;;24.52;42.19;98785.41;5022669;28;20021;-76
2022/05/16 07:21:12;;;;;;;2.80;1.55;;;;;;;23.95;43.64;98787.13;5033342;28;20132;-73
2022/05/16 07:23:37;;;;;;;2.75;1.58;;;;;;;23.03;45.38;98760.22;5034226;28;20041;-77
2022/05/16 07:28:46;;;;;;;5.57;1.65;;;;;;;23.48;45.65;98756.31;5026154;28;20388;-76
2022/05/16 07:31:12;;;;;;;5.80;1.80;;;;;;;24.37;44.44;98789.16;5034485;28;20018;-72
2022/05/16 07:33:38;;;;;;;7.03;1.92;;;;;;;25.63;41.36;98775.78;5031816;28;20025;-76
2022/05/16 07:36:04;;;;;;;2.17;1.58;;;;;;;25.02;42.12;98760.09;5016373;28;20128;-76
2022/05/16 07:38:29;;;;;;;5.60;1.52;;;;;;;24.44;43.18;98770.31;5034425;28;20025;-76
2022/05/16 07:40:56;;;;;;;3.70;1.65;;;;;;;23.94;44.98;98796.53;5033577;28;20034;-72
2022/05/16 07:43:23;;;;;;;3.60;1.85;;;;;;;23.95;45.41;98787.13;5035367;28;20033;-78
2022/05/16 07:45:49;;;;;;;9.05;1.77;;;;;;;23.67;45.79;98775.75;5034493;28;20061;-77
2022/05/16 07:48:15;;;;;;;7.70;1.80;;;;;;;25.67;42.42;98767.69;5017217;28;20025;-76
2022/05/16 07:50:41;;;;;;;6.50;1.73;;;;;;;28.27;37.33;98783.34;5047291;22;20036;-76
2022/05/16 07:53:12;;;;;;;4.35;1.80;;;;;;;30.36;33.98;98789.81;5051117;28;20393;-74
2022/05/16 07:55:42;;;;;;;2.35;1.50;;;;;;;31.31;32.41;98800.78;5050143;28;20103;-72
2022/05/16 07:58:08;;;;;;;2.28;1.67;;;;;;;31.02;33.17;98808.03;5053321;28;20409;-70
2022/05/16 08:00:34;;;;;;;5.15;1.88;;;;;;;31.96;31.73;98816.03;5052383;28;20033;-75
2022/05/16 08:02:59;;;;;;;3.78;1.70;;;;;;;31.34;32.43;98805.69;5055746;28;20025;-73
2022/05/16 08:05:25;;;;;;;2.53;1.50;;;;;;;29.41;35.47;98803.94;5054577;28;20494;-74
2022/05/16 08:10:39;;;;;;;4.00;1.90;;;;;;;27.95;38.44;98806.72;5049805;28;20028;-72
2022/05/16 08:13:08;;;;;;;2.65;1.65;;;;;;;28.15;38.70;98797.00;5053838;28;20044;-69
2022/05/16 08:15:35;;;;;;;4.70;1.90;;;;;;;30.26;34.20;98795.78;5053209;28;20129;-73
2022/05/16 08:18:05;;;;;;;3.83;1.77;;;;;;;29.32;35.26;98789.16;5053667;28;20037;-68
2022/05/16 08:20:32;;;;;;;3.40;1.70;;;;;;;27.58;39.04;98805.94;5053492;28;20047;-68
2022/05/16 08:22:58;;;;;;;2.58;1.63;;;;;;;26.33;41.82;98815.56;5052627;28;20033;-68
2022/05/16 08:25:23;;;;;;;5.15;2.00;;;;;;;26.00;42.50;98785.97;5052033;28;20029;-69
2022/05/16 08:27:52;;;;;;;3.63;1.88;;;;;;;26.07;42.61;98804.13;5050084;28;20025;-69
2022/05/16 08:30:22;;;;;;;3.10;1.90;;;;;;;27.17;41.63;98806.06;5038479;28;20025;-69
2022/05/16 08:32:48;;;;;;;2.33;1.58;;;;;;;28.38;38.95;98797.78;5052861;28;20107;-69
2022/05/16 08:35:14;;;;;;;4.65;1.70;;;;;;;28.38;39.01;98804.16;5051334;28;20025;-69
2022/05/16 08:40:35;;;;;;;10.50;2.33;;;;;;;27.14;41.53;98809.47;5059114;28;20064;-69
2022/05/16 08:43:13;;;;;;;3.85;1.88;;;;;;;26.58;43.16;98812.31;5055988;28;20053;-69
2022/05/16 08:45:41;;;;;;;6.78;2.03;;;;;;;26.37;43.67;98805.50;5058482;28;20056;-69
2022/05/16 08:48:17;;;;;;;3.25;1.95;;;;;;;26.50;43.76;98823.31;5060979;28;20084;-69
2022/05/16 08:51:06;;;;;;;2.35;1.90;;;;;;;27.22;42.59;98826.28;5058260;28;20386;-68
2022/05/16 08:53:41;;;;;;;5.13;2.13;;;;;;;26.92;43.15;98811.06;5050918;28;20025;-68
2022/05/16 08:56:10;;;;;;;9.75;2.50;;;;;;;26.90;43.32;98835.53;5062948;28;20115;-68
2022/05/16 08:58:41;;;;;;;5.15;2.25;;;;;;;28.49;40.89;98826.16;5053163;28;20086;-67
2022/05/16 09:01:24;;;;;;;5.20;2.03;;;;;;;30.45;37.42;98831.66;5053389;28;20029;-67
2022/05/16 09:04:00;;;;;;;4.25;2.17;;;;;;;31.53;34.12;98836.81;5051541;28;20069;-68
2022/05/16 09:06:34;;;;;;;8.98;2.58;;;;;;;31.01;35.89;98825.97;5044431;28;20017;-69
2022/05/16 09:09:10;;;;;;;3.03;2.08;;;;;;;30.72;37.37;98824.81;5050510;28;20478;-69
2022/05/16 09:11:53;;;;;;;5.68;2.28;;;;;;;32.46;33.21;98826.19;5051379;28;20032;-69
2022/05/16 09:14:49;;;;;;;4.85;2.50;;;;;;;32.83;32.99;98825.38;5048643;28;20089;-69
2022/05/16 09:17:38;;;;;;;5.15;2.50;;;;;;;33.26;31.79;98827.56;5038657;28;20470;-69
2022/05/16 09:20:24;;;;;;;6.18;2.25;;;;;;;33.74;30.38;98831.41;5042307;28;20047;-69
2022/05/16 09:23:01;;;;;;;5.57;2.75;;;;;;;34.26;29.96;98830.47;5043224;28;20116;-69
2022/05/16 09:25:36;;;;;;;5.75;2.70;;;;;;;33.63;30.52;98840.72;5043955;28;20032;-69
2022/05/16 09:30:58;;;;;;;7.40;2.60;;;;;;;33.46;30.34;98822.97;5045103;28;20397;-69
2022/05/16 09:33:27;;;;;;;6.05;2.58;;;;;;;32.02;33.12;98837.03;5045693;28;20082;-69
2022/05/16 09:36:00;;;;;;;;;;;;;;;30.57;35.02;98836.53;5044762;28;20025;-69
2022/05/16 09:38:26;;;;;;;8.10;2.83;;;;;;;29.23;38.34;98848.50;5046471;28;20011;-69
2022/05/16 09:41:00;;;;;;;6.85;2.72;;;;;;;29.59;37.51;98841.00;5045731;28;20123;-69
2022/05/16 09:43:31;;;;;;;7.40;3.10;;;;;;;30.29;36.96;98831.41;5046168;28;20017;-69
2022/05/16 09:46:05;;;;;;;4.25;2.60;;;;;;;31.60;35.63;98847.47;5044871;28;20818;-69
2022/05/16 09:48:31;;;;;;;8.18;2.63;;;;;;;31.50;34.09;98848.69;5045596;28;20031;-69
2022/05/16 09:50:57;;;;;;;9.02;2.58;;;;;;;30.52;36.01;98856.25;5045278;28;20028;-69
2022/05/16 09:53:35;;;;;;;6.72;2.53;;;;;;;32.20;33.26;98862.88;5045231;28;20024;-70
2022/05/16 09:56:09;;;;;;;7.40;2.20;;;;;;;33.75;31.08;98849.91;5045330;28;20124;-69
2022/05/16 09:58:48;;;;;;;5.50;2.50;;;;;;;35.87;28.40;98856.00;5049195;28;20721;-70
2022/05/16 10:01:31;;;;;;;8.98;2.13;;;;;;;34.53;29.78;98858.03;5046125;28;20033;-70
2022/05/16 10:04:09;;;;;;;5.78;2.42;;;;;;;33.44;30.53;98855.34;5047769;28;20487;-69
2022/05/16 10:06:37;;;;;;;4.07;2.10;;;;;;;32.40;32.13;98863.13;5045070;28;20021;-69
2022/05/16 10:09:08;;;;;;;5.93;2.33;;;;;;;31.15;34.08;98864.84;5045441;28;20045;-69
2022/05/16 10:11:37;;;;;;;5.47;2.65;;;;;;;29.40;36.32;98867.22;5043416;28;20071;-69
2022/05/16 10:14:03;;;;;;;9.50;2.40;;;;;;;30.10;35.64;98870.81;5046998;28;20060;-69
2022/05/16 10:16:31;;;;;;;5.45;2.50;;;;;;;31.61;33.90;98861.09;5042003;28;20090;-69
2022/05/16 10:19:13;;;;;;;7.78;2.65;;;;;;;29.81;36.76;98867.91;5045872;28;20033;-69
2022/05/16 10:21:53;;;;;;;5.13;2.88;;;;;;;28.59;38.01;98868.44;5062952;28;20663;-69
2022/05/16 10:24:20;;;;;;;7.88;2.65;;;;;;;28.12;38.65;98858.84;5042859;28;20070;-72
2022/05/16 10:26:50;;;;;;;7.82;2.97;;;;;;;28.32;39.14;98863.03;5051454;28;20044;-68
2022/05/16 10:29:22;;;;;;;8.40;2.97;;;;;;;28.42;38.73;98871.13;5043606;28;20076;-70
2022/05/16 10:34:47;;;;;;;5.30;2.83;;;;;;;27.83;40.23;98873.22;5053622;28;20077;-69
2022/05/16 10:37:14;;;;;;;5.40;2.65;;;;;;;26.98;41.68;98887.56;5044412;28;20112;-69
2022/05/16 10:39:43;;;;;;;7.47;3.00;;;;;;;27.06;41.97;98878.53;5051934;28;20028;-69
2022/05/16 10:42:19;;;;;;;7.22;2.58;;;;;;;26.91;41.18;98886.31;5043163;28;20397;-69
2022/05/16 10:45:11;;;;;;;6.40;2.47;;;;;;;26.56;41.63;98888.69;5048545;28;20090;-69
2022/05/16 10:48:00;;;;;;;10.93;2.72;;;;;;;27.09;41.35;98893.72;5044699;28;20031;-68
2022/05/16 10:50:43;;;;;;;;;;;;;;;27.10;41.91;98887.03;5049283;28;20490;-68
2022/05/16 10:53:42;;;;;;;9.52;2.80;;;;;;;26.72;41.92;98892.00;5058430;28;20003;-69
2022/05/16 10:56:31;;;;;;;;;;;;;;;27.06;41.86;98889.63;5032141;28;20044;-69
2022/05/16 10:59:21;;;;;;;9.38;2.60;;;;;;;27.04;42.45;98897.44;5048070;28;20007;-68
2022/05/16 11:02:05;;;;;;;7.28;2.20;;;;;;;27.88;41.33;98892.56;5054165;28;20028;-69
2022/05/16 11:04:49;;;;;;;6.45;2.40;;;;;;;27.28;41.31;98890.88;5046507;28;20734;-69
2022/05/16 11:07:23;;;;;;;5.53;2.30;;;;;;;27.03;41.99;98889.41;5041895;28;20033;-68
2022/05/16 11:09:49;;;;;;;5.70;2.13;;;;;;;26.77;42.74;98876.03;5048733;28;20032;-68
2022/05/16 11:12:24;;;;;;;6.25;1.75;;;;;;;26.34;42.26;98887.41;5050208;28;20017;-68
2022/05/16 11:15:18;;;;;;;8.48;1.95;;;;;;;26.36;42.23;98882.38;5047847;28;20047;-68
2022/05/16 11:18:06;;;;;;;11.40;1.60;;;;;;;27.01;40.51;98869.44;5044934;28;20036;-68
2022/05/16 11:20:42;;;;;;;6.90;1.15;;;;;;;29.02;36.81;98878.91;5043826;28;20025;-69
2022/05/16 11:23:49;;;;;;;3.25;1.17;;;;;;;30.57;33.73;98887.63;5049706;28;20032;-71
2022/05/16 11:26:49;;;;;;;6.55;1.15;;;;;;;28.42;36.30;98885.84;5037607;28;20032;-71
2022/05/16 11:29:27;;;;;;;4.88;1.27;;;;;;;28.15;38.35;98895.19;5042105;28;20029;-69
2022/05/16 11:31:58;;;;;;;2.97;1.20;;;;;;;27.88;38.16;98881.44;5048871;28;20040;-69
2022/05/16 11:34:52;;;;;;;9.32;1.38;;;;;;;28.00;38.11;98897.53;5050610;28;20098;-69
2022/05/16 11:37:54;;;;;;;6.20;1.35;;;;;;;26.80;40.18;98903.22;5051392;28;20036;-68
2022/05/16 11:40:41;;;;;;;5.43;1.50;;;;;;;25.80;42.00;98908.25;5049095;28;20470;-69
2022/05/16 11:43:24;;;;;;;6.60;1.30;;;;;;;25.20;42.92;98924.63;5048284;28;20686;-69
2022/05/16 11:46:09;;;;;;;3.20;1.13;;;;;;;24.82;43.44;98927.28;5047475;28;20454;-69
2022/05/16 11:49:00;;;;;;;2.20;1.35;;;;;;;24.60;45.31;98920.31;5053344;28;20044;-69
2022/05/16 11:51:53;;;;;;;8.85;1.50;;;;;;;24.23;46.49;98932.81;5046768;28;20024;-68
2022/05/16 11:54:25;;;;;;;7.13;1.48;;;;;;;24.08;46.77;98941.22;5066875;28;20029;-68
2022/05/16 12:02:50;;;;;;;7.83;1.10;;;;;;;23.41;49.87;98944.38;5056057;28;20033;-69
2022/05/16 12:05:19;;;;;;;2.15;1.00;;;;;;;23.28;50.33;98944.19;5045518;28;20037;-69
2022/05/16 12:07:56;;;;;;;7.45;1.45;;;;;;;23.03;50.90;98947.88;5045349;28;20447;-68
2022/05/16 12:10:25;;;;;;;5.00;1.30;;;;;;;23.03;51.02;98936.84;5039256;28;20033;-68
2022/05/16 12:13:29;;;;;;;4.85;1.42;;;;;;;22.91;51.50;98934.38;5049711;28;20054;-67
2022/05/16 12:16:13;;;;;;;3.42;1.38;;;;;;;23.24;50.95;98940.31;5045861;28;20029;-68
2022/05/16 12:18:43;;;;;;;4.60;1.20;;;;;;;23.35;50.69;98939.19;5050572;28;20450;-68
2022/05/16 12:21:10;;;;;;;;;;;;;;;23.40;49.97;98951.03;5055542;28;20068;-69
2022/05/16 12:23:47;;;;;;;6.60;1.40;;;;;;;23.12;50.83;98951.72;5053690;28;19917;-68
2022/05/16 12:26:25;;;;;;;1.40;0.98;;;;;;;22.40;52.93;98964.81;5042471;28;20024;-68